createdAt,value
2022-08-10T00:02:27.816Z,14.52
2022-08-10T00:07:30.430Z,14.58
2022-08-10T00:12:54.289Z,14.53
2022-08-10T00:17:57.842Z,14.52
2022-08-10T00:23:00.281Z,14.33
2022-08-10T00:28:04.187Z,14.15
2022-08-10T00:33:06.280Z,13.97
2022-08-10T00:38:09.034Z,13.75
2022-08-10T00:43:11.043Z,13.61
2022-08-10T00:48:12.990Z,13.48
2022-08-10T00:53:15.168Z,13.42
2022-08-10T00:58:17.219Z,13.40
2022-08-10T01:04:42.070Z,13.40
2022-08-10T01:08:52.136Z,13.45
2022-08-10T01:14:06.065Z,13.54
2022-08-10T01:19:40.425Z,13.58
2022-08-10T01:25:00.777Z,13.53
2022-08-10T01:30:11.515Z,13.43
2022-08-10T01:35:16.593Z,13.27
2022-08-10T01:40:22.694Z,13.17
2022-08-10T01:45:25.419Z,13.08
2022-08-10T01:50:31.950Z,13.05
2022-08-10T01:55:34.892Z,12.99
2022-08-10T02:00:39.405Z,12.81
2022-08-10T02:05:43.463Z,12.61
2022-08-10T02:10:46.839Z,12.46
2022-08-10T02:16:01.848Z,12.46
2022-08-10T02:21:05.259Z,12.54
2022-08-10T02:26:09.758Z,12.60
2022-08-10T02:31:14.987Z,12.55
2022-08-10T02:36:17.831Z,12.47
2022-08-10T02:42:18.794Z,12.45
2022-08-10T02:46:59.952Z,12.43
2022-08-10T02:52:09.201Z,12.42
2022-08-10T02:57:16.297Z,12.39
2022-08-10T03:02:38.878Z,12.38
2022-08-10T03:07:50.211Z,12.31
2022-08-10T03:13:00.158Z,12.12
2022-08-10T03:18:03.349Z,11.86
2022-08-10T03:23:10.247Z,11.80
2022-08-10T03:28:20.385Z,11.86
2022-08-10T03:33:26.648Z,11.82
2022-08-10T03:38:28.912Z,11.74
2022-08-10T03:43:31.196Z,11.78
2022-08-10T03:48:49.001Z,11.86
2022-08-10T03:54:05.734Z,11.95
2022-08-10T03:59:12.288Z,11.94
2022-08-10T04:04:17.811Z,11.98
2022-08-10T04:09:43.235Z,12.20
2022-08-10T04:14:50.886Z,12.49
2022-08-10T04:19:56.141Z,12.96
2022-08-10T04:25:00.590Z,14.31
2022-08-10T04:30:02.940Z,15.69
2022-08-10T04:35:04.917Z,16.97
2022-08-10T04:40:24.887Z,17.85
2022-08-10T04:45:47.417Z,18.73
2022-08-10T04:50:52.816Z,19.26
2022-08-10T04:55:55.857Z,19.62
2022-08-10T05:00:57.924Z,20.10
2022-08-10T05:05:59.998Z,20.58
2022-08-10T05:11:03.656Z,21.07
2022-08-10T05:16:05.774Z,20.98
2022-08-10T05:21:09.316Z,20.23
2022-08-10T05:26:11.503Z,19.70
2022-08-10T05:31:18.918Z,19.38
2022-08-10T05:36:34.345Z,19.18
2022-08-10T05:41:41.499Z,18.98
2022-08-10T05:46:46.878Z,18.91
2022-08-10T05:51:49.112Z,18.96
2022-08-10T05:56:54.259Z,18.93
2022-08-10T06:02:32.732Z,19.19
2022-08-10T06:07:28.676Z,19.42
2022-08-10T06:12:32.219Z,19.65
2022-08-10T06:17:38.268Z,19.86
2022-08-10T06:22:40.361Z,19.95
2022-08-10T06:27:43.509Z,20.02
2022-08-10T06:32:45.880Z,20.26
2022-08-10T06:37:50.699Z,20.43
2022-08-10T06:42:54.727Z,20.41
2022-08-10T06:48:04.161Z,20.66
2022-08-10T06:53:13.206Z,20.73
2022-08-10T06:58:15.397Z,21.07
2022-08-10T07:03:19.033Z,21.27
2022-08-10T07:08:28.156Z,21.35
2022-08-10T07:14:15.428Z,21.52
2022-08-10T07:18:58.790Z,21.48
2022-08-10T07:24:07.611Z,21.69
2022-08-10T07:29:26.577Z,21.91
2022-08-10T07:34:35.628Z,22.13
2022-08-10T07:39:58.299Z,22.38
2022-08-10T07:45:05.187Z,22.47
2022-08-10T07:50:21.981Z,22.69
2022-08-10T07:56:01.868Z,22.88
2022-08-10T08:00:58.441Z,23.05
2022-08-10T08:06:11.495Z,23.04
2022-08-10T08:11:25.498Z,22.93
2022-08-10T08:16:29.408Z,23.05
2022-08-10T08:24:07.375Z,23.21
2022-08-10T08:26:58.189Z,23.25
2022-08-10T08:32:06.348Z,23.13
2022-08-10T08:38:32.171Z,23.33
2022-08-10T08:43:00.898Z,23.66
2022-08-10T08:48:29.972Z,23.93
2022-08-10T08:54:02.284Z,24.21
2022-08-10T08:59:11.038Z,24.24
2022-08-10T09:04:54.156Z,24.37
2022-08-10T09:10:26.158Z,24.18
2022-08-10T09:16:09.408Z,24.31
2022-08-10T09:21:58.673Z,24.41
2022-08-10T09:27:29.570Z,24.42
2022-08-10T09:36:14.151Z,24.53
2022-08-10T09:38:55.884Z,24.79
2022-08-10T09:50:58.991Z,25.11
2022-08-10T09:56:19.070Z,25.05
2022-08-10T10:02:03.290Z,25.22
2022-08-10T10:07:16.295Z,25.53
2022-08-10T10:12:29.070Z,25.65
2022-08-10T10:17:46.921Z,25.43
2022-08-10T10:23:10.477Z,25.61
2022-08-10T10:29:19.585Z,25.71
2022-08-10T10:34:33.811Z,25.61
2022-08-10T10:39:44.647Z,25.28
2022-08-10T10:44:46.623Z,25.67
2022-08-10T10:50:00.606Z,26.01
2022-08-10T10:55:34.670Z,25.86
2022-08-10T11:01:03.941Z,25.88
2022-08-10T11:06:39.739Z,26.27
2022-08-10T11:12:01.673Z,26.49
2022-08-10T11:17:46.211Z,26.64
2022-08-10T11:23:12.513Z,26.94
2022-08-10T11:28:16.471Z,27.02
2022-08-10T11:34:48.870Z,26.40
2022-08-10T11:39:49.683Z,25.67
2022-08-10T11:45:05.730Z,25.62
2022-08-10T11:50:10.700Z,26.31
2022-08-10T11:55:20.740Z,26.74
2022-08-10T12:00:24.627Z,26.82
2022-08-10T12:05:46.588Z,26.17
2022-08-10T12:10:57.069Z,25.57
2022-08-10T12:16:11.672Z,25.92
2022-08-10T12:21:55.619Z,26.30
2022-08-10T12:27:16.298Z,26.39
2022-08-10T12:32:36.648Z,26.52
2022-08-10T12:37:51.256Z,26.59
2022-08-10T12:44:04.408Z,26.64
2022-08-10T12:48:43.848Z,26.73
2022-08-10T12:53:51.657Z,26.91
2022-08-10T12:58:59.808Z,26.77
2022-08-10T13:04:21.025Z,26.49
2022-08-10T13:09:26.947Z,26.74
2022-08-10T13:14:38.283Z,26.70
2022-08-10T13:19:55.468Z,26.71
2022-08-10T13:25:02.219Z,26.83
2022-08-10T13:30:07.130Z,26.86
2022-08-10T13:35:20.772Z,27.06
2022-08-10T13:40:23.854Z,26.98
2022-08-10T13:45:26.402Z,26.69
2022-08-10T13:50:35.719Z,26.01
2022-08-10T13:55:53.809Z,25.75
2022-08-10T14:01:00.488Z,26.31
2022-08-10T14:06:07.452Z,26.76
2022-08-10T14:11:13.629Z,27.03
2022-08-10T14:16:17.293Z,26.69
2022-08-10T14:21:20.478Z,25.87
2022-08-10T14:26:26.438Z,25.44
2022-08-10T14:31:34.344Z,25.34
2022-08-10T14:36:54.809Z,25.60
2022-08-10T14:42:03.105Z,25.94
2022-08-10T14:47:53.359Z,26.21
2022-08-10T14:52:43.990Z,26.38
2022-08-10T14:58:19.481Z,26.34
2022-08-10T15:03:58.026Z,26.40
2022-08-10T15:08:37.865Z,26.42
2022-08-10T15:14:40.961Z,26.34
2022-08-10T15:20:01.427Z,25.98
2022-08-10T15:24:57.404Z,25.72
2022-08-10T15:30:00.035Z,25.78
2022-08-10T15:35:25.692Z,25.89
2022-08-10T15:40:32.447Z,26.00
2022-08-10T15:45:45.714Z,26.11
2022-08-10T15:51:06.001Z,26.14
2022-08-10T15:56:28.159Z,25.97
2022-08-10T16:02:13.373Z,25.89
2022-08-10T16:07:15.445Z,25.88
2022-08-10T16:12:34.086Z,25.82
2022-08-10T16:17:54.422Z,25.75
2022-08-10T16:23:07.493Z,25.74
2022-08-10T16:28:23.429Z,25.62
2022-08-10T16:33:53.725Z,25.56
2022-08-10T16:38:57.504Z,25.41
2022-08-10T16:44:03.881Z,25.30
2022-08-10T16:49:07.472Z,25.26
2022-08-10T16:54:10.256Z,25.43
2022-08-10T16:59:17.868Z,26.21
2022-08-10T17:04:23.887Z,26.59
2022-08-10T17:09:30.071Z,27.12
2022-08-10T17:14:33.794Z,27.33
2022-08-10T17:19:40.889Z,27.59
2022-08-10T17:25:11.545Z,27.64
2022-08-10T17:30:16.083Z,27.58
2022-08-10T17:35:43.554Z,27.52
2022-08-10T17:41:15.323Z,27.44
2022-08-10T17:46:18.402Z,27.30
2022-08-10T17:51:21.379Z,26.73
2022-08-10T17:56:23.955Z,25.56
2022-08-10T18:01:40.242Z,24.74
2022-08-10T18:06:56.448Z,24.08
2022-08-10T18:12:02.301Z,23.50
2022-08-10T18:17:23.068Z,22.97
2022-08-10T18:22:25.428Z,22.47
2022-08-10T18:28:01.125Z,21.95
2022-08-10T18:32:55.083Z,21.48
2022-08-10T18:38:01.018Z,21.13
2022-08-10T18:44:02.911Z,20.80
2022-08-10T18:48:38.576Z,20.48
2022-08-10T18:53:47.518Z,20.20
2022-08-10T18:59:11.678Z,19.93
2022-08-10T19:04:56.474Z,19.70
2022-08-10T19:10:30.384Z,19.35
2022-08-10T19:15:42.617Z,19.01
2022-08-10T19:20:55.011Z,18.77
2022-08-10T19:26:44.757Z,18.55
2022-08-10T19:32:44.837Z,18.37
2022-08-10T19:38:16.386Z,18.29
2022-08-10T19:43:59.084Z,18.14
2022-08-10T19:49:13.646Z,17.94
2022-08-10T19:54:26.526Z,17.76
2022-08-10T20:00:19.040Z,17.74
2022-08-10T20:05:38.578Z,17.77
2022-08-10T20:10:50.282Z,17.69
2022-08-10T20:16:05.462Z,17.54
2022-08-10T20:21:17.228Z,17.41
2022-08-10T20:26:35.798Z,17.21
2022-08-10T20:31:55.760Z,17.05
2022-08-10T20:37:06.279Z,17.03
2022-08-10T20:42:34.660Z,16.90
2022-08-10T20:48:07.378Z,16.69
2022-08-10T20:53:50.238Z,16.59
2022-08-10T20:59:16.288Z,16.57
2022-08-10T21:04:54.511Z,16.49
2022-08-10T21:10:05.956Z,16.50
2022-08-10T21:15:27.471Z,16.45
2022-08-10T21:20:47.090Z,16.49
2022-08-10T21:26:09.771Z,16.61
2022-08-10T21:31:30.115Z,16.59
2022-08-10T21:36:35.083Z,16.45
2022-08-10T21:42:17.124Z,16.23
2022-08-10T21:48:30.510Z,16.17
2022-08-10T21:54:05.559Z,16.14
2022-08-10T21:59:35.259Z,16.02
2022-08-10T22:04:58.672Z,15.87
2022-08-10T22:10:22.810Z,15.81
2022-08-10T22:16:09.856Z,15.89
2022-08-10T22:22:19.915Z,15.89
2022-08-10T22:27:54.482Z,15.84
2022-08-10T22:33:33.697Z,15.88
2022-08-10T22:40:11.866Z,15.95
2022-08-10T22:45:03.739Z,15.72
2022-08-10T22:50:10.186Z,15.65
2022-08-10T22:55:37.270Z,15.72
2022-08-10T23:00:39.614Z,15.70
2022-08-10T23:06:04.115Z,15.58
2022-08-10T23:11:08.079Z,15.53
2022-08-10T23:16:39.651Z,15.57
2022-08-10T23:22:03.330Z,15.52
2022-08-10T23:27:37.656Z,15.36
2022-08-10T23:32:46.693Z,15.18
2022-08-10T23:37:49.343Z,15.01
2022-08-10T23:42:52.433Z,14.88
2022-08-10T23:48:01.578Z,14.72
2022-08-10T23:53:13.382Z,14.65
2022-08-10T23:58:31.534Z,14.58
